KNMI Weerbulletins

Hier vind u de KMNI verwachtingen en de waarnemingen

Bron: KNMI website
Laatste update op 26-05-2020 om 23:17
ZCZC
FBNL50 EHDB 262031
WEERBULLETIN VOOR DE LUCHTVAART
.
GELDIG VOOR: DE DAGLICHTPERIODE VAN WOENSDAG 27 MEI 2020.
.
SITUATIE: AAN DE ZUIDOOSTFLANK VAN EEN HOGEDRUKGEBIED BOVEN SCHOTLAND
STAAT IN ONZE OMGEVING EEN GELEIDELIJK AANTREKKENDE NOORDELIJKE
STROMING. DE AANGEVOERDE LUCHT IS IN DE KUSTGEBIEDEN VRIJ VOCHTIG
ONDERIN. DE ATMOSFEER IS TUSSEN 06 UTC EN 18:15 UTC ONSTABIEL VAN
OPBOUW, TOT MAXIMAAL 5000-7000 VT IN DE LOOP VAN DE MIDDAG.
.
SIGNIFICANT WEER: TOT UITERLIJK 06 UTC VOORAL IN HET WESTEN, MIDDEN
EN NOORDEN LOKAAL NEVEL/GRONDMIST EN MOGELIJK EEN MISTBANK. VANAF DE
TWEEDE HELFT VAN DE OCHTEND TOT EN MET DE EERSTE HELFT VAN DE MIDDAG
IN HET WADDENGEBIED KANS OP NEVEL VANAF ZEE, BOVEN WATER OF DIRECT
AAN ZEE MOGELIJK MIST. IN DE MIDDAG MOGELIJK OOK LANGS DE WESTKUST.
.
WIND: NOORDELIJK 2-5 KN, IN HET WESTEN EN NOORDEN 3-8 KN, IN DE
KUSTGEBIEDEN EN BOVEN HET IJSSELMEER 7-12 KN. IN DE LOOP VAN DE
OCHTEND LANDINWAARTS ENKELE KN TOENEMEND. IN DE LOOP VAN DE MIDDAG
TOENEMEND NAAR 8-13 KN, IN DE KUSTGEBIEDEN EN BOVEN HET IJSSELMEER
13-18 KN, EN RUIMEND NAAR NOORD- TOT NOORDOOST. AAN HET EINDE VAN DE
PERIODE WEER ENKELE KN AFNEMEND.
.
BEWOLKING: VANAF DE TWEEDE HELFT VAN DE OCHTEND TOT EN MET DE EERSTE
HELFT VAN DE MIDDAG IN HET WADDENGEBIED KANS OP BKN ST ROND OF
BENEDEN 500 VT, TOPPEN 1000 VT, IN DE MIDDAG MOGELIJK OOK LANGS DE
WESTKUST. IN DE OCHTEND IN HET NOORDEN ENKELE VELDEN BKN SC/AC
4000-6000 VT, TOPPEN 7000 VT. IN DE MIDDAG VOORAL IN DE OOSTELIJKE
HELFT VORMING VAN FEW/SCT CU 4000-5000 VT, TOPPEN 5000-7000 VT.
.
ZICHT: TOT UITERLIJK 06 UTC VOORAL IN HET WESTEN, MIDDEN EN NOORDEN
LOKAAL 5-8 KM, MOGELIJK 1500-5000 M EN IN/BIJ MISTBANKEN MINDER DAN
1500 M. ELDERS/VERDER MEER DAN 10 KM.
.
NULGRADEN NIVEAU: ROND FL100, IN DE AVOND IN HET NOORDEN DALEND NAAR
FL080.
.
THERMIEK: VANAF 06 UTC ZWAK, SPOEDIG MATIG, PLAATSELIJK VERZWAKT
T.G.V. AFSCHERMING. UITDOVEND VANAF 18:15 UTC.
.
DAGLICHTPERIODE: 03.15 TOT 20.00 UTC.=
NNNN
Bron: KNMI website
Laatste update op 26-05-2020 om 23:17
ZCZC
FC261700 EHGR     GILZE-RIJEN/GILZE-RIJEN   NLD   14 m.
TAF EHGR 261612Z 2617/2705 02006KT CAVOK
    BECMG 2623/2701 VRB03KT
    PROB30 2701/2705 4500 BR MIFG=
ZCZC
FC261700 EHKD     DE KOOY/DE KOOY   NLD   1 m.
TAF EHKD 261645Z 2617/2705 34005KT CAVOK
    PROB40 2700/2705 4000 BR MIFG=
ZCZC
FC261700 EHLW     LEEUWARDEN/LEEUWARDEN   NLD   1 m.
TAF EHLW 261607Z 2617/2705 34005KT CAVOK
    PROB40 2701/2705 4500 BR MIFG=
ZCZC
FC261700 EHVK     VOLKEL/VOLKEL   NLD   21 m.
TAF EHVK 261609Z 2617/2705 02005KT CAVOK
    BECMG 2622/2701 VRB03KT
    PROB30 2701/2705 4500 BR MIG=
ZCZC
FC261700 EHWO     WOENSDRECHT/WOENSDRECHT   NLD   19 m.
TAF EHWO 261700Z NIL=
ZCZC
FT261700 EHAM     AMSTERDAM/SCHIPHOL   NLD   -3 m.
TAF EHAM 261705Z 2618/2724 33007KT CAVOK
    PROB30 2701/2705 4000 BR MIFG
    BECMG 2709/2712 35012KT
    BECMG 2719/2722 04007KT=
ZCZC
FT261700 EHBK     MAASTRICHT/MAASTRICHT-AACHEN   NLD   114 m.
TAF EHBK 261657Z 2618/2724 03007KT CAVOK=
ZCZC
FT261700 EHGG     GRONINGEN/EELDE   NLD   5 m.
TAF EHGG 261657Z 2618/2724 03005KT CAVOK
    PROB30 2700/2705 6000 MIFG
    BECMG 2707/2710 36010KT
    BECMG 2719/2722 03005KT
    PROB30 2722/2724 6000 MIFG=
ZCZC
FT261700 EHLE     LELYSTAD/LELYSTAD   NLD   -3 m.
TAF EHLE 261705Z 2618/2724 34005KT CAVOK
    PROB30 2701/2705 4000 BR MIFG
    BECMG 2709/2712 34014KT
    BECMG 2719/2722 04007KT=
ZCZC
FT261700 EHRD     ROTTERDAM/THE HAGUE AIRPORT   NLD   -5 m.
TAF EHRD 261705Z 2618/2724 34005KT CAVOK
    PROB40 2700/2705 4000 BR MIFG
    BECMG 2708/2711 36012KT
    BECMG 2719/2722 04007KT=
ZCZC
FT261700 EHEH     EINDHOVEN/EINDHOVEN   NLD   22 m.
TAF EHEH 261723Z 2618/2724 01006KT CAVOK
    PROB30 2703/2706 4000 BR MIFG
    BECMG 2708/2710 SCT040=
Bron: KNMI website
Laatste update op 26-05-2020 om 23:17
ZCZC
SA262055 EHKD     DE KOOY/DE KOOY   NLD   1 m.
METAR EHKD 262055Z AUTO 34006KT 300V030 9999 NCD 13/11 Q1035
BLU 34007KT CAVOK=
ZCZC
SA262055 EHFD     F3-FB-1   NLD   50 m.
METAR EHFD 262055Z AUTO /////KT //// // BKN033/// OVC038/// 12/11
Q1035 RE//=
ZCZC
SA262055 EHAM     AMSTERDAM/SCHIPHOL   NLD   -3 m.
METAR EHAM 262055Z 33005KT CAVOK 15/08 Q1035 NOSIG=
ZCZC
SA262055 EHVL     VLIELAND   NLD   10 m.
METAR EHVL 262055Z AUTO 35009KT 9999 FEW350 12/12 Q1035 BLU=
ZCZC
SA262055 EHJR     K13-A   NLD   37 m.
METAR EHJR 262055Z AUTO 02008KT //// // ///////// 12/10 Q1036 RE//
W12/H5=
ZCZC
SA262055 EHLE     LELYSTAD/LELYSTAD   NLD   -3 m.
METAR EHLE 262055Z AUTO 33006KT 9999 NSC 15/12 Q1034=
ZCZC
SA262055 EHLW     LEEUWARDEN/LEEUWARDEN   NLD   1 m.
METAR EHLW 262055Z AUTO 35005KT 9999 SCT079 13/11 Q1035 BLU=
ZCZC
SA262055 EHDL     ARNHEM/DEELEN   NLD   48 m.
METAR EHDL 262055Z AUTO 35002KT 9999 NCD 13/10 Q1034 BLU=
ZCZC
SA262055 EHGG     GRONINGEN/EELDE   NLD   5 m.
METAR EHGG 262055Z AUTO 35003KT 9999 NCD 13/10 Q1034 NOSIG=
ZCZC
SA262055 EHSC     LICHTEILAND GOEREE   NLD   22 m.
METAR EHSC 262055Z AUTO 01009KT 9999 ///////// 13/11 Q1035 W13/H3=
ZCZC
SA262055 EHSA     EURO PLATFORM   NLD   19 m.
METAR EHSA 262055Z AUTO 35009KT 9999 ///////// 13/10 Q1036 W11/H4=
ZCZC
SA262055 EHWO     WOENSDRECHT/WOENSDRECHT   NLD   19 m.
METAR EHWO 262055Z AUTO VRB02KT 9999 OVC370 15/08 Q1035 BLU=
ZCZC
SA262055 EHRD     ROTTERDAM/THE HAGUE AIRPORT   NLD   -5 m.
METAR EHRD 262055Z AUTO 33003KT 290V030 9999 NSC 14/09 Q1035 NOSIG=
ZCZC
SA262055 EHGR     GILZE-RIJEN/GILZE-RIJEN   NLD   14 m.
METAR EHGR 262055Z AUTO 34007KT 290V020 9999 NCD 17/08 Q1034
BLU 01006KT CAVOK=
ZCZC
SA262055 EHEH     EINDHOVEN/EINDHOVEN   NLD   22 m.
METAR EHEH 262055Z AUTO 35004KT 310V040 9999 SCT390 17/10 Q1034 BLU=
ZCZC
SA262055 EHVK     VOLKEL/VOLKEL   NLD   21 m.
METAR EHVK 262055Z AUTO 05001KT 9999 NCD 14/08 Q1034 BLU=
ZCZC
SA262055 EHBK     MAASTRICHT/MAASTRICHT-AACHEN   NLD   114 m.
METAR EHBK 262055Z AUTO 09003KT 060V120 9999 NCD 16/05 Q1034 NOSIG=
ZCZC
SA262055 EHFZ     F16-A   NLD   43 m.
METAR EHFZ 262055Z AUTO 33009KT 9999 SCT040 12/11 Q1035=
ZCZC
SA262055 EHKV     K14-FA-1C   NLD   41 m.
METAR EHKV 262055Z AUTO 36012KT 9999 NSC 12/11 Q////=
ZCZC
SA262055 EHMG     L9-FF-1   NLD   44 m.
METAR EHMG 262055Z AUTO 35009KT 9999 NCD 13/12 Q1036=
ZCZC
SA262055 EHMA     AWG-1   NLD   40 m.
METAR EHMA 262055Z AUTO 13005KT 9999 NCD 15/12 Q1035=
ZCZC
SA262055 EHDV     D15-FA-1   NLD   42 m.
METAR EHDV 262055Z AUTO 01007KT //// // ///////// 12/11 Q1036 RE//=
ZCZC
SA262055 EHAK     A12-CPP   NLD   48 m.
METAR EHAK 262055Z AUTO 34012KT 9999 BKN004/// 11/10 Q1035=
ZCZC
SA262055 EHQE     HOORN-A   NLD   50 m.
METAR EHQE 262055Z AUTO 32010KT 9999 NCD 13/11 Q1035=
ZCZC
SA262055 EHJA     J6-A   NLD   45 m.
METAR EHJA 262055Z AUTO 01005KT 9999 NSC 12/11 Q1036=
ZCZC
SA262055 EHPG     P11-B   NLD   41 m.
METAR EHPG 262055Z AUTO 35008KT 330V030 9999 NSC 13/10 Q1036=
ZCZC
SA262055 EHHW     BUITENGAATS/BG-OHVS2      42 m.
METAR EHHW 262055Z AUTO 18005KT 9999 NSC 12/11 Q1035=
ZCZC
SA262055 EHFS     VLISSINGEN AWS   NLD   8 m.
METAR EHFS 262055Z AUTO 35008KT 320V020 9999 NCD 16/08 Q1035=
ZCZC
SA262055 EHSG     BSA   NLD   43 m.
METAR EHSG 262055Z AUTO 03011KT 350V060 //// // NSC 14/09 Q1035 RE//=